Time;durP1;ratioP1;P1;durP2;ratioP2;P2;SDS_P1;SDS_P2;PMS_P1;PMS_P2;Temp;Humidity;BMP_temperature;BMP_pressure;BME280_temperature;BME280_humidity;BME280_pressure;Samples;Min_cycle;Max_cycle;Signal;HPM_P1;HPM_P2
2023/07/06 00:02:00;;;;;;;422.07;407.80;;;13.50;99.90;;;;;;4953422;29;20599;-86
2023/07/06 00:04:28;;;;;;;453.40;438.07;;;13.50;99.90;;;;;;4920074;29;20225;-85
2023/07/06 00:07:23;;;;;;;471.43;455.63;;;13.50;99.90;;;;;;4937092;29;20225;-86
2023/07/06 00:09:53;;;;;;;449.03;434.10;;;13.50;99.90;;;;;;4951069;29;20643;-85
2023/07/06 00:12:24;;;;;;;434.97;420.47;;;13.60;99.90;;;;;;4954223;29;20182;-86
2023/07/06 00:15:00;;;;;;;443.13;428.57;;;13.70;99.90;;;;;;4952221;29;20620;-86
2023/07/06 00:17:26;;;;;;;449.07;434.20;;;13.60;99.90;;;;;;4933923;29;20194;-86
2023/07/06 00:19:55;;;;;;;463.17;447.87;;;13.60;99.90;;;;;;4935781;29;20599;-86
2023/07/06 00:22:21;;;;;;;455.60;440.57;;;13.60;99.90;;;;;;4936893;29;20300;-85
2023/07/06 00:24:52;;;;;;;464.23;448.80;;;13.60;99.90;;;;;;4953075;29;20552;-85
2023/07/06 00:27:18;;;;;;;452.60;437.73;;;13.60;99.90;;;;;;4954325;29;20187;-86
2023/07/06 00:30:15;;;;;;;455.33;440.40;;;13.60;99.90;;;;;;4920766;29;20177;-86
2023/07/06 00:32:41;;;;;;;440.43;425.93;;;13.50;99.90;;;;;;4953093;29;20181;-87
2023/07/06 00:35:15;;;;;;;473.37;457.13;;;13.50;99.90;;;;;;4952848;29;20539;-85
2023/07/06 00:37:44;;;;;;;462.53;447.07;;;13.40;99.90;;;;;;4936456;29;20188;-85
2023/07/06 00:40:13;;;;;;;473.00;457.00;;;13.40;99.90;;;;;;4920156;29;20780;-86
2023/07/06 00:42:45;;;;;;;459.87;444.30;;;13.40;99.90;;;;;;4952773;29;20181;-86
2023/07/06 00:45:18;;;;;;;482.27;465.60;;;13.40;99.90;;;;;;4952770;29;20181;-87
2023/07/06 00:47:55;;;;;;;471.77;455.27;;;13.30;99.90;;;;;;4953686;29;20669;-86
2023/07/06 00:50:29;;;;;;;473.53;457.70;;;13.30;99.90;;;;;;4936539;29;20646;-85
2023/07/06 00:53:14;;;;;;;491.27;474.17;;;13.30;99.90;;;;;;4937870;29;20170;-86
2023/07/06 00:55:41;;;;;;;463.17;447.03;;;13.30;99.90;;;;;;4936949;29;20197;-86
2023/07/06 00:58:22;;;;;;;470.37;454.40;;;13.30;99.90;;;;;;4953287;29;20209;-86
2023/07/06 01:00:52;;;;;;;472.83;456.17;;;13.30;99.90;;;;;;4936156;29;20205;-86
2023/07/06 01:03:25;;;;;;;463.33;447.80;;;13.30;99.90;;;;;;4936466;29;20686;-87
2023/07/06 01:06:07;;;;;;;476.30;459.87;;;13.30;99.90;;;;;;4934541;29;20193;-85
2023/07/06 01:08:37;;;;;;;523.00;504.43;;;13.30;99.90;;;;;;4935378;29;20173;-86
2023/07/06 01:11:08;;;;;;;477.43;461.43;;;13.50;99.90;;;;;;4935657;29;20273;-86
2023/07/06 01:13:37;;;;;;;473.70;458.07;;;13.60;99.90;;;;;;4935982;29;20635;-86
2023/07/06 01:16:08;;;;;;;458.47;443.07;;;13.70;99.90;;;;;;4935751;29;20178;-86
2023/07/06 01:19:15;;;;;;;490.77;474.10;;;13.70;99.90;;;;;;4944928;29;20166;-86
2023/07/06 01:22:12;;;;;;;465.83;450.17;;;13.90;99.90;;;;;;4931101;29;20232;-87
2023/07/06 01:25:16;;;;;;;480.83;464.37;;;13.90;99.90;;;;;;4936431;29;20237;-86
2023/07/06 01:28:03;;;;;;;454.23;439.13;;;14.00;99.90;;;;;;4935686;29;20165;-87
2023/07/06 01:30:54;;;;;;;468.97;453.20;;;14.00;99.90;;;;;;4951673;29;20191;-87
2023/07/06 01:34:04;;;;;;;464.47;448.63;;;14.00;99.90;;;;;;4951539;29;20254;-86
2023/07/06 01:36:39;;;;;;;450.43;435.47;;;14.00;99.90;;;;;;4927497;29;20196;-86
2023/07/06 01:39:23;;;;;;;466.83;450.67;;;14.10;99.90;;;;;;4947826;28;20181;-87
2023/07/06 01:42:27;;;;;;;483.60;467.30;;;14.10;99.90;;;;;;4952478;29;20214;-86
2023/07/06 01:45:12;;;;;;;475.97;459.83;;;14.20;99.90;;;;;;4934673;29;20200;-85
2023/07/06 01:47:48;;;;;;;477.53;461.27;;;14.20;99.90;;;;;;4951609;29;20196;-86
2023/07/06 01:50:26;;;;;;;468.37;452.33;;;14.20;99.90;;;;;;4935781;29;20173;-86
2023/07/06 01:53:34;;;;;;;475.70;458.97;;;14.20;99.90;;;;;;4934928;29;20194;-86
2023/07/06 01:56:38;;;;;;;465.77;449.87;;;14.20;99.90;;;;;;4932844;29;20742;-87
2023/07/06 01:59:23;;;;;;;439.53;424.67;;;14.10;99.90;;;;;;4950823;29;20173;-87
2023/07/06 02:01:59;;;;;;;486.33;469.70;;;14.00;99.90;;;;;;4935030;29;20212;-86
2023/07/06 02:04:31;;;;;;;461.03;445.70;;;14.00;99.90;;;;;;4935205;29;20325;-86
2023/07/06 02:07:02;;;;;;;466.53;450.57;;;14.10;99.90;;;;;;4935028;29;20189;-87
2023/07/06 02:09:28;;;;;;;473.40;457.23;;;14.10;99.90;;;;;;4952292;29;20227;-87
2023/07/06 02:11:57;;;;;;;483.83;467.70;;;14.10;99.90;;;;;;4951782;29;20185;-87
2023/07/06 02:14:32;;;;;;;476.23;460.17;;;14.10;99.90;;;;;;4935172;29;20173;-87
2023/07/06 02:17:00;;;;;;;497.80;480.37;;;14.10;99.90;;;;;;4934507;29;20213;-86
2023/07/06 02:19:26;;;;;;;487.03;470.87;;;14.10;99.90;;;;;;4931862;29;20197;-86
2023/07/06 02:22:08;;;;;;;473.50;457.77;;;14.10;99.90;;;;;;4935007;29;20674;-86
2023/07/06 02:24:38;;;;;;;471.83;455.37;;;14.00;99.90;;;;;;4935179;29;20269;-86
2023/07/06 02:27:10;;;;;;;473.13;457.17;;;14.10;99.90;;;;;;4950842;29;20197;-86
2023/07/06 02:29:36;;;;;;;476.03;459.83;;;14.10;99.90;;;;;;4934737;29;20168;-86
2023/07/06 02:32:05;;;;;;;485.50;469.00;;;14.00;99.90;;;;;;4934678;29;20334;-86
2023/07/06 02:34:37;;;;;;;470.63;454.53;;;14.00;99.90;;;;;;4950704;29;20188;-86
2023/07/06 02:37:06;;;;;;;468.47;452.53;;;13.90;99.90;;;;;;4934785;29;20240;-86
2023/07/06 02:39:34;;;;;;;478.53;462.13;;;13.90;99.90;;;;;;4934133;28;20186;-86
2023/07/06 02:42:14;;;;;;;;;;;;;;;;;;;;;
2023/07/06 02:44:43;;;;;;;489.03;472.00;;;13.90;99.90;;;;;;4951263;29;20217;-87
2023/07/06 02:47:15;;;;;;;491.70;475.20;;;13.80;99.90;;;;;;4934654;29;20185;-86
2023/07/06 02:49:44;;;;;;;492.80;476.47;;;13.70;99.90;;;;;;4949467;29;20165;-87
2023/07/06 02:52:21;;;;;;;489.97;473.30;;;13.60;99.90;;;;;;4951150;29;20216;-87
2023/07/06 02:54:52;;;;;;;501.73;483.10;;;13.60;99.90;;;;;;4934317;29;20334;-87
2023/07/06 02:57:20;;;;;;;470.57;454.47;;;13.50;99.90;;;;;;4935935;29;20647;-87
2023/07/06 02:59:50;;;;;;;490.67;473.73;;;13.40;99.90;;;;;;4934981;29;20205;-86
2023/07/06 03:02:25;;;;;;;507.80;490.23;;;13.40;99.90;;;;;;4950172;29;20221;-86
2023/07/06 03:05:35;;;;;;;499.00;481.80;;;13.30;99.90;;;;;;4951113;29;20646;-86
2023/07/06 03:08:25;;;;;;;502.10;484.87;;;13.20;99.90;;;;;;4934209;29;20200;-87
2023/07/06 03:10:55;;;;;;;498.90;481.43;;;13.20;99.90;;;;;;4934233;29;20272;-87
2023/07/06 03:13:25;;;;;;;511.13;493.43;;;13.20;99.90;;;;;;4949675;29;20185;-86
2023/07/06 03:15:56;;;;;;;508.10;490.37;;;13.10;99.90;;;;;;4933934;29;20190;-87
2023/07/06 03:18:25;;;;;;;525.00;506.53;;;13.10;99.90;;;;;;4934705;29;20181;-87
2023/07/06 03:20:55;;;;;;;524.43;505.90;;;13.10;99.90;;;;;;4932065;29;20320;-85
2023/07/06 03:23:24;;;;;;;512.23;494.43;;;13.10;99.90;;;;;;4950138;29;20284;-87
2023/07/06 03:25:55;;;;;;;516.20;497.90;;;13.10;99.90;;;;;;4934538;29;20173;-86
2023/07/06 03:28:28;;;;;;;537.27;518.03;;;13.10;99.90;;;;;;4951362;29;20283;-86
2023/07/06 03:30:58;;;;;;;527.23;508.43;;;13.10;99.90;;;;;;4951571;29;20193;-86
2023/07/06 03:33:28;;;;;;;537.17;517.80;;;13.10;99.90;;;;;;4934256;29;20193;-87
2023/07/06 03:36:03;;;;;;;525.77;507.50;;;13.10;99.90;;;;;;4934546;29;20343;-86
2023/07/06 03:38:35;;;;;;;536.40;517.03;;;13.10;99.90;;;;;;4933901;29;20682;-86
2023/07/06 03:41:24;;;;;;;521.33;503.17;;;13.10;99.90;;;;;;4913363;29;20711;-87
2023/07/06 03:43:51;;;;;;;527.03;508.40;;;13.10;99.90;;;;;;4930428;29;20178;-85
2023/07/06 03:46:17;;;;;;;540.17;521.17;;;13.10;99.90;;;;;;4914491;29;20186;-86
2023/07/06 03:48:47;;;;;;;531.03;512.07;;;13.10;99.90;;;;;;4930101;29;20185;-86
2023/07/06 03:51:13;;;;;;;513.80;495.93;;;13.10;99.90;;;;;;4914246;29;20787;-86
2023/07/06 03:53:39;;;;;;;520.53;501.93;;;13.20;99.90;;;;;;4914598;29;20174;-85
2023/07/06 03:56:06;;;;;;;539.30;520.20;;;13.30;99.90;;;;;;4917124;29;20192;-86
2023/07/06 03:58:38;;;;;;;519.20;500.90;;;13.30;99.90;;;;;;4918038;29;20237;-86
2023/07/06 04:01:04;;;;;;;538.33;518.97;;;13.50;99.90;;;;;;4933966;29;20217;-87
2023/07/06 04:03:32;;;;;;;555.60;535.33;;;13.60;99.90;;;;;;4918685;29;20174;-87
2023/07/06 04:06:03;;;;;;;548.97;529.60;;;13.70;99.90;;;;;;4918098;29;20281;-86
2023/07/06 04:08:30;;;;;;;544.53;525.20;;;13.70;99.90;;;;;;4918225;29;20265;-86
2023/07/06 04:10:56;;;;;;;584.40;562.90;;;13.70;99.90;;;;;;4934868;29;20179;-85
2023/07/06 04:13:40;;;;;;;559.93;539.77;;;13.80;99.90;;;;;;4934914;29;20178;-86
2023/07/06 04:16:16;;;;;;;568.90;548.23;;;13.80;99.90;;;;;;4918045;29;20200;-86
2023/07/06 04:18:45;;;;;;;551.97;532.43;;;13.80;99.90;;;;;;4918529;29;20189;-86
2023/07/06 04:21:20;;;;;;;560.90;539.97;;;13.80;99.90;;;;;;4918078;29;20262;-87
2023/07/06 04:23:47;;;;;;;563.37;543.10;;;13.90;99.90;;;;;;4917580;29;20277;-86
2023/07/06 04:26:15;;;;;;;542.93;523.57;;;14.00;99.90;;;;;;4934031;29;20182;-87
2023/07/06 04:28:44;;;;;;;552.60;532.70;;;14.00;99.90;;;;;;4917148;29;20198;-87
2023/07/06 04:31:17;;;;;;;561.30;540.90;;;14.00;99.90;;;;;;4917851;29;20186;-87
2023/07/06 04:33:46;;;;;;;564.47;543.17;;;14.10;99.90;;;;;;4908927;29;20224;-87
2023/07/06 04:36:21;;;;;;;553.57;533.73;;;14.20;99.90;;;;;;4929799;29;20194;-87
2023/07/06 04:39:07;;;;;;;546.03;526.47;;;14.30;99.90;;;;;;4915817;29;20194;-86
2023/07/06 04:41:37;;;;;;;542.97;523.33;;;14.40;99.90;;;;;;4933466;29;20229;-87
2023/07/06 04:44:07;;;;;;;546.27;526.30;;;14.50;99.90;;;;;;4951676;29;20635;-87
2023/07/06 04:46:36;;;;;;;562.27;541.77;;;14.80;99.90;;;;;;4935073;29;20205;-87
2023/07/06 04:49:03;;;;;;;571.60;550.50;;;15.10;99.90;;;;;;4919230;29;20268;-87
2023/07/06 04:51:35;;;;;;;573.60;552.63;;;15.30;99.90;;;;;;4935606;29;20600;-87
2023/07/06 04:54:02;;;;;;;549.33;529.30;;;15.40;99.90;;;;;;4936411;29;20479;-86
2023/07/06 04:56:37;;;;;;;575.83;554.60;;;15.60;99.90;;;;;;4920318;29;20181;-86
2023/07/06 04:59:04;;;;;;;581.33;559.70;;;15.80;99.90;;;;;;4935313;29;20175;-86
2023/07/06 05:01:29;;;;;;;576.70;555.73;;;15.80;99.90;;;;;;4933839;29;20220;-87
2023/07/06 05:03:59;;;;;;;570.27;549.63;;;15.90;99.90;;;;;;4951466;29;20185;-87
2023/07/06 05:06:34;;;;;;;573.20;552.37;;;16.10;99.90;;;;;;4933873;29;20201;-87
2023/07/06 05:09:03;;;;;;;562.77;541.80;;;16.30;99.90;;;;;;4949978;29;20189;-87
2023/07/06 05:11:31;;;;;;;582.80;561.53;;;16.60;99.90;;;;;;4934358;29;20221;-86
2023/07/06 05:13:59;;;;;;;585.17;564.13;;;16.70;99.90;;;;;;4950148;29;20422;-86
2023/07/06 05:16:33;;;;;;;580.03;558.87;;;16.70;99.90;;;;;;4920671;29;20181;-86
2023/07/06 05:19:02;;;;;;;561.23;540.50;;;16.70;99.90;;;;;;4934610;29;20177;-88
2023/07/06 05:21:28;;;;;;;572.10;550.80;;;16.90;99.90;;;;;;4950891;29;20236;-87
2023/07/06 05:23:54;;;;;;;567.37;546.30;;;18.00;99.90;;;;;;4902916;29;20589;-88
2023/07/06 05:26:21;;;;;;;612.93;589.13;;;19.50;99.90;;;;;;4934200;29;20209;-87
2023/07/06 05:28:50;;;;;;;588.17;566.60;;;20.20;99.90;;;;;;4935040;29;20189;-87
2023/07/06 05:31:15;;;;;;;579.37;558.30;;;20.10;99.90;;;;;;4950891;29;20272;-87
2023/07/06 05:33:41;;;;;;;585.50;563.87;;;20.40;99.90;;;;;;4950834;29;20268;-86
2023/07/06 05:36:07;;;;;;;614.73;591.27;;;21.30;99.90;;;;;;4939359;29;20477;-86
2023/07/06 05:38:33;;;;;;;587.57;565.53;;;23.80;99.90;;;;;;4950975;29;20178;-87
2023/07/06 05:41:03;;;;;;;539.40;520.47;;;25.80;99.90;;;;;;4950488;29;20233;-86
2023/07/06 05:43:29;;;;;;;474.60;458.40;;;27.70;99.90;;;;;;4934406;29;20276;-86
2023/07/06 05:45:55;;;;;;;420.90;407.30;;;28.70;99.90;;;;;;4934010;29;20253;-87
2023/07/06 05:48:23;;;;;;;360.77;349.67;;;29.40;99.90;;;;;;4919170;29;20242;-87
2023/07/06 05:50:49;;;;;;;305.63;296.07;;;29.50;99.90;;;;;;4933702;29;20555;-86
2023/07/06 05:53:15;;;;;;;275.20;266.98;;;29.00;99.90;;;;;;4933936;29;20189;-87
2023/07/06 05:55:43;;;;;;;250.53;242.90;;;29.70;99.90;;;;;;4934322;29;20193;-86
2023/07/06 05:58:16;;;;;;;256.98;249.50;;;29.50;99.90;;;;;;4934287;29;20181;-87
2023/07/06 06:00:45;;;;;;;236.48;229.60;;;28.50;99.90;;;;;;4933815;29;20221;-86
2023/07/06 06:03:11;;;;;;;236.25;229.25;;;28.80;99.90;;;;;;4933843;29;20185;-86
2023/07/06 06:05:39;;;;;;;230.68;223.85;;;29.50;99.90;;;;;;4932870;29;20189;-88
2023/07/06 06:08:12;;;;;;;254.55;246.93;;;29.60;99.90;;;;;;4935051;29;20161;-86
2023/07/06 06:10:41;;;;;;;256.20;248.65;;;30.60;99.90;;;;;;4933707;29;20755;-85
2023/07/06 06:13:07;;;;;;;255.23;247.43;;;31.90;99.90;;;;;;4933463;29;20181;-85
2023/07/06 06:15:35;;;;;;;285.85;276.98;;;29.90;99.90;;;;;;4933282;29;20558;-87
2023/07/06 06:18:02;;;;;;;295.92;286.55;;;29.90;99.90;;;;;;4932840;29;20237;-85
2023/07/06 06:20:28;;;;;;;261.02;253.50;;;30.90;99.90;;;;;;4948667;29;20188;-84
2023/07/06 06:22:54;;;;;;;301.75;292.58;;;30.80;99.90;;;;;;4932839;29;20189;-88
2023/07/06 06:25:20;;;;;;;295.08;286.50;;;30.90;99.90;;;;;;4933009;29;20256;-86
2023/07/06 06:27:48;;;;;;;260.55;252.75;;;32.30;99.90;;;;;;4916807;29;20181;-88
2023/07/06 06:30:15;;;;;;;219.35;212.68;;;32.60;99.90;;;;;;4949740;29;20185;-85
2023/07/06 06:32:41;;;;;;;153.38;148.27;;;33.00;99.90;;;;;;4949592;29;20182;-85
2023/07/06 06:35:25;;;;;;;135.52;131.40;;;32.20;99.90;;;;;;4949219;29;20658;-85
2023/07/06 06:37:51;;;;;;;111.47;108.03;;;32.30;99.90;;;;;;4949453;29;20272;-86
2023/07/06 06:40:19;;;;;;;108.90;105.60;;;31.30;99.90;;;;;;4921011;29;20244;-86
2023/07/06 06:42:45;;;;;;;109.18;105.78;;;31.50;99.90;;;;;;4932232;29;20618;-84
2023/07/06 06:45:14;;;;;;;100.65;97.25;;;31.40;99.90;;;;;;4948236;29;20189;-86
2023/07/06 06:47:40;;;;;;;97.75;94.55;;;32.70;99.90;;;;;;4949066;29;20216;-85
2023/07/06 06:50:09;;;;;;;103.00;99.20;;;31.30;99.90;;;;;;4916456;29;20181;-87
2023/07/06 06:52:35;;;;;;;94.85;91.65;;;28.80;99.90;;;;;;4948198;29;20189;-85
2023/07/06 06:55:01;;;;;;;100.75;97.53;;;27.90;99.90;;;;;;4949240;29;20268;-83
2023/07/06 06:57:30;;;;;;;98.57;95.40;;;28.30;99.90;;;;;;4932127;29;20619;-84
2023/07/06 06:59:56;;;;;;;97.82;94.63;;;28.70;99.90;;;;;;4947852;29;20182;-84
2023/07/06 07:02:22;;;;;;;97.35;94.20;;;30.10;99.90;;;;;;4947438;29;20914;-85
2023/07/06 07:04:49;;;;;;;98.47;94.97;;;30.40;99.90;;;;;;4947961;29;20182;-85
2023/07/06 07:07:16;;;;;;;93.43;90.57;;;31.10;99.90;;;;;;4947748;29;20185;-85
2023/07/06 07:09:44;;;;;;;97.00;93.95;;;29.50;99.90;;;;;;4931769;29;20220;-83
2023/07/06 07:12:11;;;;;;;84.20;81.60;;;29.70;99.90;;;;;;4916603;29;20200;-84
2023/07/06 07:14:37;;;;;;;85.85;83.15;;;31.10;99.90;;;;;;4947711;29;20193;-84
2023/07/06 07:17:07;;;;;;;83.85;81.10;;;31.10;99.90;;;;;;4915910;29;20735;-84
2023/07/06 07:19:34;;;;;;;95.47;92.57;;;28.60;99.90;;;;;;4916632;29;20213;-85
2023/07/06 07:22:01;;;;;;;86.90;84.22;;;27.80;99.90;;;;;;4947847;29;20304;-85
2023/07/06 07:24:32;;;;;;;80.95;78.05;;;28.30;99.90;;;;;;4947986;29;20200;-85
2023/07/06 07:27:00;;;;;;;89.35;86.50;;;28.40;99.90;;;;;;4931678;29;20269;-84
2023/07/06 07:29:26;;;;;;;83.65;81.10;;;27.60;99.90;;;;;;4932184;29;20228;-84
2023/07/06 07:31:52;;;;;;;85.25;82.65;;;27.90;99.90;;;;;;4935545;29;20209;-85
2023/07/06 07:34:19;;;;;;;87.28;84.57;;;27.60;99.90;;;;;;4952485;29;20178;-85
2023/07/06 07:36:44;;;;;;;91.60;88.70;;;27.90;99.90;;;;;;4952391;29;20186;-84
2023/07/06 07:39:11;;;;;;;88.13;85.32;;;27.80;99.90;;;;;;4952389;29;20177;-85
2023/07/06 07:41:37;;;;;;;88.55;85.85;;;28.70;99.90;;;;;;4934759;29;20237;-84
2023/07/06 07:44:03;;;;;;;86.15;83.47;;;29.40;99.90;;;;;;4935248;29;20221;-84
2023/07/06 07:46:32;;;;;;;81.60;79.10;;;29.60;99.90;;;;;;4934874;29;20177;-85
2023/07/06 07:49:01;;;;;;;77.90;75.47;;;28.80;99.90;;;;;;4919827;29;20174;-84
2023/07/06 07:51:31;;;;;;;81.05;78.47;;;27.30;99.90;;;;;;4951360;29;20232;-83
2023/07/06 07:53:57;;;;;;;82.93;80.40;;;24.60;99.90;;;;;;4951490;29;20212;-84
2023/07/06 07:56:26;;;;;;;85.47;82.88;;;24.50;99.90;;;;;;4951320;29;20241;-84
2023/07/06 07:58:52;;;;;;;82.95;80.35;;;25.70;99.90;;;;;;4935579;29;20177;-84
2023/07/06 08:01:23;;;;;;;101.70;98.63;;;26.60;99.90;;;;;;4951230;29;20259;-84
2023/07/06 08:03:51;;;;;;;91.97;89.22;;;25.60;99.90;;;;;;4952719;29;20169;-84
2023/07/06 08:06:22;;;;;;;86.40;83.60;;;26.10;99.90;;;;;;4952560;29;20216;-84
2023/07/06 08:08:48;;;;;;;86.45;83.78;;;27.00;99.90;;;;;;4935193;29;20181;-83
2023/07/06 08:11:16;;;;;;;88.00;85.30;;;26.20;99.90;;;;;;4951236;29;20529;-85
2023/07/06 08:13:45;;;;;;;93.50;90.60;;;26.30;99.90;;;;;;4952413;29;20539;-83
2023/07/06 08:16:12;;;;;;;80.85;78.35;;;25.70;99.90;;;;;;4952385;29;20455;-84
2023/07/06 08:18:43;;;;;;;86.07;83.47;;;25.90;99.90;;;;;;4951309;29;20181;-85
2023/07/06 08:21:10;;;;;;;75.70;73.20;;;25.60;99.90;;;;;;4952731;29;20461;-84
2023/07/06 08:23:40;;;;;;;86.40;83.60;;;24.10;99.90;;;;;;4951118;29;20245;-84
2023/07/06 08:26:08;;;;;;;88.38;85.70;;;23.90;99.90;;;;;;4934945;29;20162;-84
2023/07/06 08:28:34;;;;;;;111.72;108.38;;;24.30;99.90;;;;;;4935062;29;20708;-82
2023/07/06 08:31:02;;;;;;;106.25;103.05;;;24.30;99.90;;;;;;4952275;29;20507;-84
2023/07/06 08:33:35;;;;;;;107.97;104.65;;;25.10;99.90;;;;;;4935024;29;20181;-84
2023/07/06 08:36:06;;;;;;;110.20;106.82;;;24.80;99.90;;;;;;4951093;29;20374;-83
2023/07/06 08:38:33;;;;;;;113.57;110.05;;;24.50;99.90;;;;;;4950661;29;20181;-83
2023/07/06 08:41:03;;;;;;;111.10;107.78;;;23.60;99.90;;;;;;4930304;29;20277;-84
2023/07/06 08:43:34;;;;;;;120.93;117.32;;;23.70;99.90;;;;;;4931502;29;20205;-84
2023/07/06 08:46:03;;;;;;;123.88;120.18;;;24.10;99.90;;;;;;4915726;29;20640;-83
2023/07/06 08:48:34;;;;;;;150.43;145.80;;;24.20;99.90;;;;;;4932752;29;20182;-83
2023/07/06 08:51:10;;;;;;;135.35;131.30;;;24.30;99.90;;;;;;4932545;29;20529;-83
2023/07/06 08:53:36;;;;;;;122.28;118.57;;;25.50;99.90;;;;;;4932484;29;20639;-84
2023/07/06 08:56:08;;;;;;;120.60;116.90;;;24.80;99.90;;;;;;4931195;29;20182;-83
2023/07/06 08:58:41;;;;;;;117.13;113.43;;;24.90;99.90;;;;;;4932731;29;20608;-82
2023/07/06 09:01:16;;;;;;;117.75;114.05;;;25.40;99.90;;;;;;4932240;29;20579;-84
2023/07/06 09:03:51;;;;;;;112.07;108.72;;;26.60;99.90;;;;;;4915451;29;20173;-83
2023/07/06 09:06:22;;;;;;;114.47;110.90;;;26.40;99.90;;;;;;4915142;29;20162;-86
2023/07/06 09:08:53;;;;;;;115.13;111.63;;;25.90;99.90;;;;;;4915311;29;20683;-83
2023/07/06 09:11:25;;;;;;;111.85;108.45;;;24.50;99.90;;;;;;4915346;29;20230;-86
2023/07/06 09:14:03;;;;;;;118.78;114.88;;;24.40;99.90;;;;;;4932359;29;20163;-84
2023/07/06 09:16:44;;;;;;;103.47;100.18;;;25.00;99.90;;;;;;4914982;29;20714;-85
2023/07/06 09:19:10;;;;;;;119.45;115.65;;;25.80;99.90;;;;;;4915130;29;20496;-86
2023/07/06 09:21:36;;;;;;;106.47;103.22;;;26.30;99.90;;;;;;4915064;29;20202;-84
2023/07/06 09:24:02;;;;;;;117.20;113.55;;;26.20;99.90;;;;;;4914883;29;20636;-83
2023/07/06 09:26:38;;;;;;;111.90;108.45;;;26.60;99.90;;;;;;4899244;29;20182;-84
2023/07/06 09:29:25;;;;;;;101.32;98.07;;;27.00;99.90;;;;;;4930694;29;20177;-83
2023/07/06 09:32:08;;;;;;;109.18;105.72;;;26.60;99.90;;;;;;4914686;29;20628;-83
2023/07/06 09:34:34;;;;;;;103.70;100.57;;;28.40;99.90;;;;;;4914499;29;20672;-84
2023/07/06 09:37:02;;;;;;;101.32;98.25;;;29.00;99.90;;;;;;4914937;29;20182;-84
2023/07/06 09:39:30;;;;;;;105.80;102.60;;;29.10;99.90;;;;;;4916655;28;20261;-84
2023/07/06 09:41:57;;;;;;;100.82;97.82;;;28.60;99.90;;;;;;4949299;29;20600;-84
2023/07/06 09:44:29;;;;;;;100.15;97.07;;;28.10;99.90;;;;;;4933541;29;20264;-85
2023/07/06 09:46:57;;;;;;;102.30;99.28;;;26.70;99.90;;;;;;4949317;29;20182;-85
2023/07/06 09:49:32;;;;;;;102.85;99.68;;;26.40;99.90;;;;;;4948837;29;20200;-83
2023/07/06 09:52:05;;;;;;;97.40;94.38;;;26.20;99.90;;;;;;4932733;28;20165;-85
2023/07/06 09:54:51;;;;;;;102.38;99.03;;;26.00;99.90;;;;;;4932683;29;20174;-84
2023/07/06 09:57:17;;;;;;;94.60;91.65;;;26.30;99.90;;;;;;4949849;29;20166;-83
2023/07/06 09:59:48;;;;;;;95.60;92.60;;;27.20;99.90;;;;;;4947949;29;20185;-84
2023/07/06 10:02:36;;;;;;;100.93;97.85;;;26.50;99.90;;;;;;4932371;29;20201;-82
2023/07/06 10:05:07;;;;;;;104.95;101.82;;;26.80;99.90;;;;;;4932930;29;20177;-82
2023/07/06 10:07:39;;;;;;;92.53;89.72;;;27.50;99.90;;;;;;4948440;29;20182;-82
2023/07/06 10:10:59;;;;;;;85.05;82.45;;;26.10;99.90;;;;;;4948536;29;20213;-83
2023/07/06 10:13:25;;;;;;;89.60;86.72;;;26.10;99.90;;;;;;4948124;29;20266;-82
2023/07/06 10:16:28;;;;;;;98.00;94.80;;;25.20;99.90;;;;;;4948519;29;20276;-83
2023/07/06 10:19:11;;;;;;;94.38;91.47;;;25.10;99.90;;;;;;4947859;29;20181;-82
2023/07/06 10:21:48;;;;;;;100.85;97.68;;;25.80;99.90;;;;;;4949428;29;20216;-83
2023/07/06 10:24:20;;;;;;;97.75;94.75;;;25.60;99.90;;;;;;4949542;29;20222;-83
2023/07/06 10:26:52;;;;;;;108.72;105.03;;;26.00;99.90;;;;;;4949204;29;20177;-83
2023/07/06 10:29:46;;;;;;;101.38;98.25;;;26.40;99.90;;;;;;4949296;29;20178;-83
2023/07/06 10:32:20;;;;;;;111.30;107.95;;;27.20;99.90;;;;;;4948121;29;20208;-84
2023/07/06 10:34:54;;;;;;;103.45;100.32;;;27.90;99.90;;;;;;4931882;29;20182;-85
2023/07/06 10:37:24;;;;;;;85.95;83.20;;;28.40;99.90;;;;;;4932374;29;20181;-85
2023/07/06 10:40:25;;;;;;;91.60;88.60;;;27.00;99.90;;;;;;4932119;29;20232;-84
2023/07/06 10:43:14;;;;;;;84.20;81.53;;;25.70;99.90;;;;;;4932226;29;20216;-85
2023/07/06 10:46:25;;;;;;;84.18;81.47;;;24.80;99.90;;;;;;4948132;29;20166;-85
2023/07/06 10:48:55;;;;;;;92.00;89.13;;;24.40;99.90;;;;;;4933780;29;20200;-85
2023/07/06 10:51:25;;;;;;;104.78;101.57;;;24.80;99.90;;;;;;4931991;29;20221;-84
2023/07/06 10:54:17;;;;;;;94.13;91.20;;;25.10;99.90;;;;;;4929973;29;20233;-84
2023/07/06 10:57:00;;;;;;;94.93;91.93;;;25.10;99.90;;;;;;4930179;29;20166;-84
2023/07/06 10:59:35;;;;;;;107.03;103.72;;;24.70;99.90;;;;;;4947570;29;20170;-84
2023/07/06 11:02:33;;;;;;;100.90;97.82;;;24.70;99.90;;;;;;4930870;29;20375;-84
2023/07/06 11:05:08;;;;;;;103.32;100.18;;;25.00;99.90;;;;;;4949527;28;20165;-84
2023/07/06 11:07:46;;;;;;;103.10;100.03;;;25.10;99.90;;;;;;4951624;29;20200;-83
2023/07/06 11:10:14;;;;;;;110.78;107.45;;;24.80;99.90;;;;;;4951305;29;20180;-84
2023/07/06 11:12:58;;;;;;;115.90;112.35;;;25.00;99.90;;;;;;4950426;29;20189;-83
2023/07/06 11:15:44;;;;;;;100.05;96.85;;;24.40;99.90;;;;;;4951715;29;20181;-83
2023/07/06 11:18:22;;;;;;;129.70;125.55;;;24.30;99.90;;;;;;4950939;29;20189;-83
2023/07/06 11:20:52;;;;;;;99.80;96.70;;;23.90;99.90;;;;;;4950499;29;20276;-83
2023/07/06 11:23:27;;;;;;;110.57;106.97;;;23.80;99.90;;;;;;4951220;29;20178;-86
2023/07/06 11:25:53;;;;;;;93.03;90.05;;;23.80;99.90;;;;;;4936006;29;20181;-84
2023/07/06 11:28:23;;;;;;;112.70;109.15;;;24.10;99.90;;;;;;4951618;29;20186;-84
2023/07/06 11:31:12;;;;;;;138.63;134.32;;;24.70;99.90;;;;;;4935619;29;20181;-84
2023/07/06 11:33:49;;;;;;;132.38;128.32;;;24.80;99.90;;;;;;4935769;29;20193;-84
2023/07/06 11:36:41;;;;;;;101.97;98.85;;;24.20;99.90;;;;;;4952190;29;20619;-84
2023/07/06 11:39:22;;;;;;;74.93;72.53;;;23.70;99.90;;;;;;4930669;29;20225;-85
2023/07/06 11:41:53;;;;;;;96.93;93.93;;;23.90;99.90;;;;;;4935763;29;20213;-85
2023/07/06 11:44:52;;;;;;;105.32;102.13;;;24.10;99.90;;;;;;4935750;29;20511;-84
2023/07/06 11:47:58;;;;;;;84.25;81.65;;;24.00;99.90;;;;;;4952760;29;20229;-84
2023/07/06 11:50:31;;;;;;;78.88;76.47;;;23.90;99.90;;;;;;4930063;29;20398;-84
2023/07/06 11:53:09;;;;;;;90.65;87.82;;;23.30;99.90;;;;;;4935378;29;20241;-84
2023/07/06 11:55:54;;;;;;;122.47;118.53;;;23.70;99.90;;;;;;4935610;29;20165;-85
2023/07/06 11:58:43;;;;;;;107.50;104.28;;;23.80;99.90;;;;;;4935792;29;20530;-85
2023/07/06 12:01:20;;;;;;;152.80;148.30;;;23.80;99.90;;;;;;4935278;29;20216;-84
2023/07/06 12:03:57;;;;;;;145.68;141.27;;;23.30;99.90;;;;;;4935527;29;20162;-84
2023/07/06 12:06:22;;;;;;;127.55;123.75;;;23.30;99.90;;;;;;4935452;29;20635;-85
2023/07/06 12:08:48;;;;;;;135.40;131.23;;;23.40;99.90;;;;;;4935228;29;20188;-85
2023/07/06 12:11:22;;;;;;;135.43;131.30;;;23.20;99.90;;;;;;4935070;29;20189;-84
2023/07/06 12:13:53;;;;;;;178.32;173.13;;;23.40;99.90;;;;;;4935162;29;20173;-85
2023/07/06 12:16:28;;;;;;;160.70;155.65;;;23.50;99.90;;;;;;4934734;29;20539;-85
2023/07/06 12:19:03;;;;;;;175.63;170.43;;;23.30;99.90;;;;;;4952338;29;20236;-83
2023/07/06 12:21:33;;;;;;;194.02;188.43;;;23.10;99.90;;;;;;4951010;29;20220;-84
2023/07/06 12:24:21;;;;;;;170.18;165.07;;;22.90;99.90;;;;;;4935340;29;20176;-83
2023/07/06 12:26:51;;;;;;;189.52;184.02;;;22.80;99.90;;;;;;4950914;29;20166;-85
2023/07/06 12:29:18;;;;;;;176.23;171.13;;;22.70;99.90;;;;;;4935104;29;20236;-85
2023/07/06 12:31:49;;;;;;;203.43;197.65;;;22.80;99.90;;;;;;4950588;29;20229;-84
2023/07/06 12:34:20;;;;;;;217.00;210.75;;;22.90;99.90;;;;;;4934752;29;20533;-84
2023/07/06 12:36:49;;;;;;;186.85;181.45;;;23.10;99.90;;;;;;4951930;29;20177;-85
2023/07/06 12:39:20;;;;;;;224.20;217.77;;;23.30;99.90;;;;;;4952369;29;20244;-83
2023/07/06 12:41:47;;;;;;;236.73;229.73;;;22.90;99.90;;;;;;4950849;29;20253;-83
2023/07/06 12:44:17;;;;;;;431.85;415.73;;;22.70;99.90;;;;;;4934442;29;20217;-84